Time;durP1;ratioP1;P1;durP2;ratioP2;P2;SDS_P1;SDS_P2;PMS_P1;PMS_P2;Temp;Humidity;BMP_temperature;BMP_pressure;BME280_temperature;BME280_humidity;BME280_pressure;Samples;Min_cycle;Max_cycle;Signal;HPM_P1;HPM_P2
2022/07/24 00:01:56;;;;;;;1.30;1.30;;;22.60;99.90;;;;;;4995109;28;20206;-62
2022/07/24 00:04:22;;;;;;;1.38;1.38;;;22.50;99.90;;;;;;4996686;28;20213;-62
2022/07/24 00:06:50;;;;;;;1.38;1.38;;;22.50;99.90;;;;;;4997819;28;20206;-62
2022/07/24 00:09:17;;;;;;;1.40;1.40;;;22.50;99.90;;;;;;5014523;28;20709;-62
2022/07/24 00:11:44;;;;;;;1.50;1.40;;;22.40;99.90;;;;;;5022337;28;20211;-62
2022/07/24 00:14:11;;;;;;;1.38;1.38;;;22.50;99.90;;;;;;5022225;28;20208;-66
2022/07/24 00:16:49;;;;;;;1.48;1.48;;;22.50;99.90;;;;;;5050575;23;20742;-63
2022/07/24 00:19:18;;;;;;;1.63;1.53;;;22.50;99.90;;;;;;5061851;28;20231;-63
2022/07/24 00:21:46;;;;;;;1.73;1.50;;;22.50;99.90;;;;;;5056127;28;20211;-66
2022/07/24 00:24:13;;;;;;;1.30;1.30;;;22.50;99.90;;;;;;5066035;28;20212;-66
2022/07/24 00:26:40;;;;;;;1.42;1.42;;;22.40;99.90;;;;;;5070261;28;20335;-66
2022/07/24 00:29:07;;;;;;;1.50;1.50;;;22.30;99.90;;;;;;5061323;28;20192;-65
2022/07/24 00:31:34;;;;;;;1.35;1.35;;;22.20;99.90;;;;;;5063632;28;20204;-65
2022/07/24 00:34:02;;;;;;;1.55;1.45;;;22.20;99.90;;;;;;5069443;28;20242;-64
2022/07/24 00:36:29;;;;;;;1.50;1.50;;;22.20;99.90;;;;;;5089638;28;20227;-64
2022/07/24 00:38:55;;;;;;;1.40;1.40;;;22.30;99.90;;;;;;5074122;28;20307;-65
2022/07/24 00:41:22;;;;;;;1.55;1.52;;;22.30;99.90;;;;;;5050829;28;20231;-64
2022/07/24 00:43:59;;;;;;;1.50;1.40;;;22.30;99.90;;;;;;5071066;28;20643;-64
2022/07/24 00:46:26;;;;;;;1.30;1.30;;;22.20;99.90;;;;;;5062079;28;20306;-64
2022/07/24 00:48:53;;;;;;;1.60;1.50;;;22.00;99.90;;;;;;5062352;28;20314;-64
2022/07/24 00:51:22;;;;;;;1.33;1.33;;;21.90;99.90;;;;;;5059489;28;20232;-62
2022/07/24 00:53:49;;;;;;;1.47;1.47;;;21.80;99.90;;;;;;5048765;28;20222;-65
2022/07/24 00:56:16;;;;;;;1.55;1.52;;;21.70;99.90;;;;;;5064621;28;20752;-65
2022/07/24 00:58:43;;;;;;;1.25;1.25;;;21.60;99.90;;;;;;5064036;28;20232;-64
2022/07/24 01:01:10;;;;;;;1.40;1.40;;;21.60;99.90;;;;;;5063275;28;20250;-64
2022/07/24 01:03:37;;;;;;;1.67;1.60;;;21.60;99.90;;;;;;5065221;28;20629;-64
2022/07/24 01:06:05;;;;;;;1.50;1.50;;;21.60;99.90;;;;;;5068994;28;20263;-64
2022/07/24 01:08:34;;;;;;;1.40;1.40;;;21.50;99.90;;;;;;5057721;28;20196;-64
2022/07/24 01:11:01;;;;;;;1.30;1.30;;;21.50;99.90;;;;;;5060603;28;20208;-62
2022/07/24 01:13:29;;;;;;;1.30;1.30;;;21.50;99.90;;;;;;5064577;28;20634;-64
2022/07/24 01:15:57;;;;;;;1.43;1.33;;;21.40;99.90;;;;;;5067478;28;20324;-65
2022/07/24 01:18:23;;;;;;;1.35;1.35;;;21.40;99.90;;;;;;5068472;28;20228;-65
2022/07/24 01:20:52;;;;;;;1.40;1.40;;;21.40;99.90;;;;;;5067713;28;20200;-64
2022/07/24 01:23:19;;;;;;;1.40;1.40;;;21.40;99.90;;;;;;5065108;28;20215;-63
2022/07/24 01:25:46;;;;;;;1.50;1.50;;;21.40;99.90;;;;;;5065249;28;20227;-63
2022/07/24 01:28:13;;;;;;;1.30;1.30;;;21.30;99.90;;;;;;5057609;28;20206;-65
2022/07/24 01:30:39;;;;;;;1.63;1.60;;;21.30;99.90;;;;;;5064031;28;20596;-63
2022/07/24 01:33:06;;;;;;;1.38;1.38;;;21.40;99.90;;;;;;5065128;28;20203;-62
2022/07/24 01:35:33;;;;;;;1.60;1.50;;;21.30;99.90;;;;;;5062614;28;20307;-62
2022/07/24 01:38:02;;;;;;;1.42;1.40;;;21.30;99.90;;;;;;5067167;28;20291;-63
2022/07/24 01:40:29;;;;;;;1.52;1.42;;;21.20;99.90;;;;;;5064988;28;20737;-64
2022/07/24 01:42:55;;;;;;;1.30;1.30;;;21.10;99.90;;;;;;5069021;28;20250;-63
2022/07/24 01:45:22;;;;;;;1.52;1.52;;;21.10;99.90;;;;;;5064689;28;20298;-64
2022/07/24 01:47:49;;;;;;;1.63;1.52;;;21.10;99.90;;;;;;5062502;28;20196;-65
2022/07/24 01:50:16;;;;;;;1.55;1.52;;;21.00;99.90;;;;;;5065685;28;20199;-65
2022/07/24 01:52:43;;;;;;;1.45;1.45;;;21.00;99.90;;;;;;5065150;28;20250;-63
2022/07/24 01:55:12;;;;;;;1.38;1.38;;;21.00;99.90;;;;;;5072504;28;20266;-63
2022/07/24 01:57:39;;;;;;;1.50;1.50;;;21.00;99.90;;;;;;5070049;28;20268;-64
2022/07/24 02:00:12;;;;;;;1.90;1.80;;;21.00;99.90;;;;;;5070248;28;20642;-64
2022/07/24 02:02:39;;;;;;;1.50;1.50;;;21.00;99.90;;;;;;5064955;28;20258;-63
2022/07/24 02:05:07;;;;;;;1.70;1.60;;;21.10;99.90;;;;;;5065193;28;20413;-64
2022/07/24 02:07:33;;;;;;;1.50;1.42;;;21.10;99.90;;;;;;5061883;28;20784;-63
2022/07/24 02:10:00;;;;;;;1.50;1.50;;;21.00;99.90;;;;;;5056085;28;20348;-63
2022/07/24 02:12:29;;;;;;;1.58;1.58;;;21.00;99.90;;;;;;5053646;28;20300;-63
2022/07/24 02:14:56;;;;;;;1.40;1.40;;;20.90;99.90;;;;;;5059192;28;20637;-64
2022/07/24 02:17:23;;;;;;;1.48;1.45;;;20.80;99.90;;;;;;5062465;28;20263;-64
2022/07/24 02:19:49;;;;;;;1.30;1.30;;;20.80;99.90;;;;;;5058390;28;20227;-63
2022/07/24 02:22:16;;;;;;;1.37;1.37;;;20.70;99.90;;;;;;5060610;28;20203;-64
2022/07/24 02:24:43;;;;;;;1.50;1.40;;;20.70;99.90;;;;;;5063101;28;20207;-64
2022/07/24 02:27:10;;;;;;;1.45;1.40;;;20.70;99.90;;;;;;5062745;28;20229;-64
2022/07/24 02:29:39;;;;;;;1.40;1.40;;;20.80;99.90;;;;;;5055114;28;20290;-63
2022/07/24 02:32:07;;;;;;;1.38;1.38;;;20.80;99.90;;;;;;5064382;28;20218;-63
2022/07/24 02:34:33;;;;;;;1.40;1.40;;;20.80;99.90;;;;;;5061068;28;20200;-64
2022/07/24 02:37:01;;;;;;;1.40;1.40;;;20.70;99.90;;;;;;5060438;28;20319;-64
2022/07/24 02:39:27;;;;;;;1.60;1.50;;;20.70;99.90;;;;;;5054152;28;20307;-65
2022/07/24 02:41:54;;;;;;;1.63;1.52;;;20.60;99.90;;;;;;5059803;28;20278;-63
2022/07/24 02:44:21;;;;;;;1.60;1.50;;;20.60;99.90;;;;;;5054989;28;20300;-63
2022/07/24 02:46:50;;;;;;;1.45;1.45;;;20.50;99.90;;;;;;5047194;28;20219;-64
2022/07/24 02:49:17;;;;;;;1.35;1.35;;;20.50;99.90;;;;;;5071227;28;20202;-64
2022/07/24 02:51:43;;;;;;;1.45;1.45;;;20.40;99.90;;;;;;5055297;28;20715;-63
2022/07/24 02:54:10;;;;;;;1.50;1.50;;;20.40;99.90;;;;;;5065780;28;20200;-63
2022/07/24 02:56:37;;;;;;;1.50;1.50;;;20.40;99.90;;;;;;5057711;28;20220;-64
2022/07/24 02:59:04;;;;;;;1.50;1.50;;;20.40;99.90;;;;;;5061640;28;20250;-63
2022/07/24 03:01:31;;;;;;;1.60;1.50;;;20.30;99.90;;;;;;5060873;28;20242;-64
2022/07/24 03:03:59;;;;;;;1.73;1.63;;;20.20;99.90;;;;;;5064481;28;20207;-63
2022/07/24 03:06:26;;;;;;;1.40;1.40;;;20.20;99.90;;;;;;5062292;28;20227;-63
2022/07/24 03:08:53;;;;;;;1.60;1.60;;;20.20;99.90;;;;;;5063452;28;20203;-63
2022/07/24 03:11:20;;;;;;;1.40;1.40;;;20.20;99.90;;;;;;5060500;28;20203;-64
2022/07/24 03:13:47;;;;;;;1.60;1.50;;;20.20;99.90;;;;;;5054946;28;20207;-63
2022/07/24 03:16:15;;;;;;;1.42;1.40;;;20.20;99.90;;;;;;5058084;28;20322;-63
2022/07/24 03:18:45;;;;;;;1.50;1.50;;;20.20;99.90;;;;;;5063319;28;20688;-63
2022/07/24 03:21:14;;;;;;;1.33;1.33;;;20.20;99.90;;;;;;5058660;28;20203;-64
2022/07/24 03:23:41;;;;;;;1.40;1.40;;;20.20;99.90;;;;;;5066710;28;20207;-64
2022/07/24 03:26:08;;;;;;;1.67;1.57;;;20.10;99.90;;;;;;5061554;28;20227;-63
2022/07/24 03:28:35;;;;;;;1.70;1.60;;;20.10;99.90;;;;;;5061249;28;20741;-63
2022/07/24 03:31:02;;;;;;;1.40;1.40;;;20.10;99.90;;;;;;5075993;28;20242;-63
2022/07/24 03:33:30;;;;;;;1.70;1.60;;;20.00;99.90;;;;;;5068874;28;20204;-64
2022/07/24 03:35:56;;;;;;;1.50;1.40;;;20.00;99.90;;;;;;5081612;28;20223;-64
2022/07/24 03:38:25;;;;;;;1.50;1.50;;;20.00;99.90;;;;;;5066735;28;20778;-63
2022/07/24 03:40:52;;;;;;;1.48;1.48;;;20.00;99.90;;;;;;5057163;28;20230;-64
2022/07/24 03:43:19;;;;;;;1.33;1.30;;;20.00;99.90;;;;;;5062611;28;20203;-64
2022/07/24 03:45:46;;;;;;;1.27;1.27;;;20.00;99.90;;;;;;5054838;28;20226;-63
2022/07/24 03:48:12;;;;;;;1.63;1.57;;;19.90;99.90;;;;;;5063588;28;20199;-63
2022/07/24 03:50:39;;;;;;;1.40;1.40;;;19.90;99.90;;;;;;5061520;28;20226;-64
2022/07/24 03:53:06;;;;;;;1.70;1.60;;;19.90;99.90;;;;;;5057052;28;20242;-64
2022/07/24 03:55:35;;;;;;;1.37;1.37;;;19.90;99.90;;;;;;5052437;28;20289;-63
2022/07/24 03:58:02;;;;;;;1.50;1.50;;;19.90;99.90;;;;;;5059694;28;20239;-63
2022/07/24 04:00:29;;;;;;;1.38;1.38;;;19.90;99.90;;;;;;5074825;28;20258;-63
2022/07/24 04:02:56;;;;;;;1.30;1.30;;;19.80;99.90;;;;;;5073655;28;20222;-63
2022/07/24 04:05:23;;;;;;;1.45;1.40;;;19.90;99.90;;;;;;5060822;28;20239;-62
2022/07/24 04:07:50;;;;;;;1.33;1.33;;;20.00;99.90;;;;;;5056905;28;20232;-62
2022/07/24 04:10:17;;;;;;;1.60;1.50;;;20.20;99.90;;;;;;5068404;28;20207;-63
2022/07/24 04:12:45;;;;;;;1.30;1.30;;;20.30;99.90;;;;;;5067330;28;20207;-62
2022/07/24 04:15:12;;;;;;;1.63;1.53;;;20.30;99.90;;;;;;5068942;28;20298;-63
2022/07/24 04:17:40;;;;;;;1.33;1.30;;;20.20;99.90;;;;;;5061148;28;20291;-63
2022/07/24 04:20:08;;;;;;;1.40;1.40;;;20.30;99.90;;;;;;5064100;28;20226;-62
2022/07/24 04:22:35;;;;;;;1.73;1.63;;;20.40;99.90;;;;;;5087282;28;20212;-64
2022/07/24 04:25:03;;;;;;;1.53;1.43;;;20.40;99.90;;;;;;5078953;28;20227;-63
2022/07/24 04:27:30;;;;;;;1.45;1.42;;;20.40;99.90;;;;;;5068167;28;20210;-65
2022/07/24 04:29:58;;;;;;;1.40;1.40;;;20.30;99.90;;;;;;5065972;28;20463;-63
2022/07/24 04:32:25;;;;;;;1.50;1.40;;;20.30;99.90;;;;;;5058474;28;20204;-63
2022/07/24 04:34:52;;;;;;;1.80;1.70;;;20.30;99.90;;;;;;5065198;28;20282;-62
2022/07/24 04:37:19;;;;;;;1.47;1.43;;;20.30;99.90;;;;;;5058744;28;20270;-62
2022/07/24 04:39:46;;;;;;;1.40;1.40;;;20.30;99.90;;;;;;5072101;28;20295;-63
2022/07/24 04:42:14;;;;;;;1.60;1.50;;;20.40;99.90;;;;;;5064523;28;20291;-63
2022/07/24 04:44:41;;;;;;;1.50;1.50;;;20.30;99.90;;;;;;5066776;28;20222;-63
2022/07/24 04:47:09;;;;;;;1.67;1.58;;;20.20;99.90;;;;;;5067928;28;20230;-62
2022/07/24 04:49:36;;;;;;;1.50;1.40;;;20.20;99.90;;;;;;5066069;28;20200;-63
2022/07/24 04:52:03;;;;;;;1.40;1.40;;;20.20;99.90;;;;;;5069094;28;20244;-62
2022/07/24 04:54:30;;;;;;;1.43;1.40;;;20.20;99.90;;;;;;5066578;28;20196;-63
2022/07/24 04:56:57;;;;;;;1.40;1.40;;;20.30;99.90;;;;;;5068725;28;20389;-63
2022/07/24 04:59:23;;;;;;;1.25;1.25;;;20.30;99.90;;;;;;5063689;28;20238;-63
2022/07/24 05:01:50;;;;;;;1.43;1.33;;;20.40;99.90;;;;;;5051180;28;20221;-63
2022/07/24 05:04:18;;;;;;;1.30;1.30;;;20.30;99.90;;;;;;5065523;28;20222;-63
2022/07/24 05:06:47;;;;;;;1.60;1.47;;;20.30;99.90;;;;;;5063184;28;20705;-63
2022/07/24 05:09:13;;;;;;;1.37;1.37;;;20.30;99.90;;;;;;5062884;28;20265;-62
2022/07/24 05:11:40;;;;;;;1.53;1.43;;;20.40;99.90;;;;;;5065484;28;20560;-62
2022/07/24 05:14:07;;;;;;;1.60;1.50;;;20.50;99.90;;;;;;5068585;28;20224;-63
2022/07/24 05:16:34;;;;;;;1.60;1.50;;;20.50;99.90;;;;;;5065573;28;20706;-62
2022/07/24 05:19:01;;;;;;;1.60;1.50;;;20.60;99.90;;;;;;5057028;28;20295;-63
2022/07/24 05:21:29;;;;;;;1.60;1.50;;;20.70;99.90;;;;;;5073280;28;20743;-63
2022/07/24 05:23:56;;;;;;;1.20;1.20;;;20.90;99.90;;;;;;5070437;28;20714;-63
2022/07/24 05:26:23;;;;;;;1.43;1.40;;;21.00;99.90;;;;;;5065814;28;20272;-63
2022/07/24 05:28:50;;;;;;;1.60;1.50;;;21.30;99.90;;;;;;5063580;28;20211;-64
2022/07/24 05:31:17;;;;;;;1.30;1.30;;;21.30;99.90;;;;;;5058216;28;20206;-63
2022/07/24 05:33:44;;;;;;;1.40;1.40;;;21.40;99.90;;;;;;5063409;28;20283;-62
2022/07/24 05:36:10;;;;;;;1.90;1.40;;;21.50;99.90;;;;;;5065770;28;20568;-62
2022/07/24 05:38:40;;;;;;;1.33;1.33;;;21.70;99.90;;;;;;5064443;28;20222;-63
2022/07/24 05:41:07;;;;;;;1.30;1.30;;;21.80;99.90;;;;;;5070496;28;20215;-62
2022/07/24 05:43:34;;;;;;;1.30;1.30;;;21.90;99.90;;;;;;5055811;28;20287;-63
2022/07/24 05:46:00;;;;;;;2.50;1.70;;;22.00;99.90;;;;;;5059560;28;20327;-63
2022/07/24 05:48:28;;;;;;;1.38;1.38;;;22.10;99.90;;;;;;5065799;28;20281;-63
2022/07/24 05:50:56;;;;;;;1.40;1.40;;;22.20;99.90;;;;;;5058289;28;20223;-62
2022/07/24 05:53:23;;;;;;;1.40;1.40;;;22.30;99.90;;;;;;5053476;28;20261;-62
2022/07/24 05:55:51;;;;;;;1.40;1.30;;;22.40;99.90;;;;;;5060768;28;20655;-63
2022/07/24 05:58:18;;;;;;;1.77;1.67;;;22.50;99.90;;;;;;5058331;28;20281;-62
2022/07/24 06:00:46;;;;;;;1.65;1.60;;;22.70;99.90;;;;;;5059035;28;20231;-62
2022/07/24 06:03:13;;;;;;;1.25;1.25;;;22.80;99.90;;;;;;5067250;28;20207;-62
2022/07/24 06:05:40;;;;;;;1.52;1.50;;;22.80;99.90;;;;;;5060724;28;20251;-62
2022/07/24 06:08:08;;;;;;;1.30;1.30;;;23.00;99.90;;;;;;5045315;28;20300;-62
2022/07/24 06:10:35;;;;;;;1.50;1.50;;;23.10;99.90;;;;;;5038998;28;20670;-62
2022/07/24 06:13:04;;;;;;;1.38;1.38;;;23.20;99.90;;;;;;5040260;28;20292;-63
2022/07/24 06:15:30;;;;;;;2.03;1.50;;;23.30;99.90;;;;;;5052323;28;20216;-61
2022/07/24 06:17:58;;;;;;;1.50;1.40;;;23.40;99.90;;;;;;5056257;22;20239;-62
2022/07/24 06:20:25;;;;;;;1.40;1.40;;;23.50;99.90;;;;;;5028690;28;21317;-62
2022/07/24 06:22:51;;;;;;;1.40;1.40;;;23.50;99.90;;;;;;5029257;28;20204;-62
2022/07/24 06:25:18;;;;;;;1.48;1.48;;;23.60;99.90;;;;;;5023449;28;20689;-62
2022/07/24 06:27:49;;;;;;;1.65;1.52;;;23.60;99.90;;;;;;5024883;28;20769;-62
2022/07/24 06:30:18;;;;;;;1.33;1.33;;;23.70;99.90;;;;;;5026445;28;20206;-63
2022/07/24 06:32:46;;;;;;;1.70;1.60;;;23.80;99.90;;;;;;5021092;28;20295;-62
2022/07/24 06:35:13;;;;;;;1.30;1.30;;;23.90;99.90;;;;;;5030786;28;20578;-62
2022/07/24 06:37:40;;;;;;;1.20;1.20;;;23.90;99.90;;;;;;5029629;28;20248;-63
2022/07/24 06:40:08;;;;;;;1.27;1.27;;;24.00;99.90;;;;;;5031642;28;20308;-63
2022/07/24 06:42:35;;;;;;;1.40;1.40;;;24.10;99.90;;;;;;5031553;28;20283;-62
2022/07/24 06:45:02;;;;;;;1.50;1.40;;;24.10;99.90;;;;;;5031557;28;20204;-62
2022/07/24 06:47:31;;;;;;;1.60;1.50;;;24.30;99.90;;;;;;5031395;28;20775;-62
2022/07/24 06:49:57;;;;;;;2.15;1.60;;;24.40;99.90;;;;;;5029357;28;20200;-62
2022/07/24 06:52:24;;;;;;;1.52;1.50;;;24.60;99.90;;;;;;5030523;28;20289;-61
2022/07/24 06:54:51;;;;;;;1.23;1.23;;;24.70;99.90;;;;;;5027630;28;20201;-61
2022/07/24 06:57:18;;;;;;;1.45;1.35;;;24.90;99.90;;;;;;5028867;28;20240;-62
2022/07/24 06:59:45;;;;;;;1.17;1.17;;;25.10;99.90;;;;;;5031292;28;20201;-62
2022/07/24 07:02:12;;;;;;;1.30;1.30;;;25.20;99.90;;;;;;5031232;28;20205;-62
2022/07/24 07:04:40;;;;;;;1.40;1.40;;;25.40;99.90;;;;;;5031463;28;20585;-62
2022/07/24 07:07:07;;;;;;;1.40;1.40;;;25.50;99.90;;;;;;5031698;28;20986;-62
2022/07/24 07:09:35;;;;;;;1.58;1.52;;;25.60;99.90;;;;;;5031344;28;20662;-61
2022/07/24 07:12:02;;;;;;;1.65;1.63;;;25.70;99.90;;;;;;5031255;28;20292;-61
2022/07/24 07:14:29;;;;;;;1.70;1.60;;;25.70;99.90;;;;;;5028816;28;20226;-62
2022/07/24 07:16:56;;;;;;;1.23;1.23;;;25.70;99.90;;;;;;5031479;28;20224;-62
2022/07/24 07:19:23;;;;;;;1.40;1.40;;;25.80;99.90;;;;;;5026627;28;20197;-61
2022/07/24 07:21:51;;;;;;;1.38;1.38;;;25.80;99.90;;;;;;5026112;28;20307;-61
2022/07/24 07:24:18;;;;;;;1.60;1.60;;;25.90;99.90;;;;;;5032670;28;20213;-61
2022/07/24 07:26:45;;;;;;;1.52;1.50;;;26.00;99.90;;;;;;5031645;28;20604;-61
2022/07/24 07:29:11;;;;;;;1.67;1.58;;;26.00;99.90;;;;;;5030830;28;20224;-61
2022/07/24 07:31:38;;;;;;;1.70;1.60;;;26.00;99.90;;;;;;5033888;28;20575;-62
2022/07/24 07:34:05;;;;;;;1.90;1.80;;;25.80;99.90;;;;;;5036030;28;20201;-62
2022/07/24 07:36:33;;;;;;;1.60;1.50;;;25.90;99.90;;;;;;5023713;28;20674;-63
2022/07/24 07:39:01;;;;;;;1.60;1.60;;;26.10;99.90;;;;;;5019220;28;20628;-63
2022/07/24 07:41:28;;;;;;;1.50;1.50;;;26.30;99.90;;;;;;5026358;28;20315;-63
2022/07/24 07:43:58;;;;;;;1.30;1.30;;;26.30;99.90;;;;;;5026268;28;20293;-63
2022/07/24 07:46:26;;;;;;;1.60;1.55;;;26.20;99.90;;;;;;5031627;28;20282;-63
2022/07/24 07:48:53;;;;;;;1.65;1.55;;;26.30;99.90;;;;;;5020201;28;20225;-63
2022/07/24 07:51:20;;;;;;;1.45;1.45;;;26.50;99.90;;;;;;5032406;28;20203;-63
2022/07/24 07:53:47;;;;;;;1.60;1.50;;;26.70;99.90;;;;;;5032124;28;20212;-61
2022/07/24 07:56:15;;;;;;;1.70;1.60;;;26.80;99.90;;;;;;5032762;28;20219;-63
2022/07/24 07:58:42;;;;;;;1.50;1.40;;;26.80;99.90;;;;;;5029627;28;20228;-63
2022/07/24 08:01:09;;;;;;;1.70;1.60;;;26.80;99.90;;;;;;5031340;28;20228;-63
2022/07/24 08:03:36;;;;;;;1.50;1.50;;;26.80;99.90;;;;;;5034805;28;20291;-63
2022/07/24 08:06:04;;;;;;;1.35;1.35;;;26.80;99.90;;;;;;5030912;28;20228;-64
2022/07/24 08:08:31;;;;;;;1.38;1.30;;;26.90;99.90;;;;;;5028296;28;20312;-64
2022/07/24 08:10:58;;;;;;;1.85;1.75;;;27.20;99.90;;;;;;5029930;28;20201;-64
2022/07/24 08:13:27;;;;;;;1.60;1.60;;;27.30;99.90;;;;;;5034633;28;20564;-64
2022/07/24 08:15:54;;;;;;;1.40;1.40;;;27.40;99.90;;;;;;5029383;28;20291;-63
2022/07/24 08:18:20;;;;;;;1.60;1.45;;;27.50;99.90;;;;;;5034485;28;20230;-63
2022/07/24 08:20:47;;;;;;;1.83;1.70;;;27.60;99.90;;;;;;5032187;28;20323;-64
2022/07/24 08:23:14;;;;;;;1.98;1.50;;;27.60;99.90;;;;;;5033441;28;20217;-63
2022/07/24 08:25:41;;;;;;;1.70;1.60;;;27.60;99.90;;;;;;5036724;28;20300;-63
2022/07/24 08:28:08;;;;;;;2.78;1.83;;;27.60;99.90;;;;;;5033660;28;20311;-63
2022/07/24 08:30:37;;;;;;;1.60;1.60;;;27.70;99.90;;;;;;5029800;28;20288;-63
2022/07/24 08:33:04;;;;;;;1.77;1.60;;;27.50;99.90;;;;;;5030039;28;20204;-64
2022/07/24 08:35:30;;;;;;;1.65;1.50;;;27.50;99.90;;;;;;5033058;28;20678;-65
2022/07/24 08:37:57;;;;;;;1.70;1.60;;;27.60;99.90;;;;;;5031906;28;20307;-63
2022/07/24 08:40:24;;;;;;;1.88;1.58;;;27.80;99.90;;;;;;5032403;28;20301;-63
2022/07/24 08:42:51;;;;;;;1.80;1.70;;;28.00;99.90;;;;;;5031439;28;20207;-63
2022/07/24 08:45:18;;;;;;;12.23;11.52;;;28.20;99.90;;;;;;5034727;28;20709;-63
2022/07/24 08:47:47;;;;;;;2.33;2.17;;;28.40;99.90;;;;;;5031688;28;20220;-63
2022/07/24 08:50:14;;;;;;;3.20;3.10;;;28.20;99.90;;;;;;5029057;28;20227;-64
2022/07/24 08:52:41;;;;;;;2.50;2.30;;;28.40;99.90;;;;;;5031154;28;20203;-64
2022/07/24 08:55:08;;;;;;;9.50;9.00;;;28.50;99.90;;;;;;5033916;28;20200;-65
2022/07/24 08:57:36;;;;;;;1.85;1.50;;;28.50;99.90;;;;;;5034179;28;20221;-62
2022/07/24 09:00:03;;;;;;;2.20;2.10;;;28.60;99.90;;;;;;5032912;28;20663;-62
2022/07/24 09:02:30;;;;;;;1.45;1.40;;;28.50;99.90;;;;;;5033723;28;20724;-64
2022/07/24 09:05:02;;;;;;;8.20;7.75;;;28.60;99.90;;;;;;5034434;28;20659;-63
2022/07/24 09:07:31;;;;;;;4.03;3.72;;;28.70;99.90;;;;;;5031491;28;20236;-62
2022/07/24 09:10:02;;;;;;;2.42;2.33;;;28.80;99.90;;;;;;5021365;28;20311;-62
2022/07/24 09:12:33;;;;;;;2.67;2.58;;;29.00;99.90;;;;;;5028169;28;20208;-64
2022/07/24 09:15:01;;;;;;;2.08;1.70;;;29.10;99.90;;;;;;5028313;28;20197;-62
2022/07/24 09:17:28;;;;;;;3.05;1.63;;;29.30;99.90;;;;;;5031977;28;20236;-66
2022/07/24 09:19:57;;;;;;;3.38;3.28;;;29.30;99.90;;;;;;5033810;28;20201;-65
2022/07/24 09:22:36;;;;;;;2.00;1.90;;;29.20;99.90;;;;;;5029970;28;20225;-65
2022/07/24 09:25:09;;;;;;;1.90;1.80;;;29.30;99.90;;;;;;5032748;28;20201;-62
2022/07/24 09:27:37;;;;;;;8.57;7.97;;;29.40;99.90;;;;;;5031388;28;20216;-63
2022/07/24 09:30:06;;;;;;;2.10;2.00;;;29.30;99.90;;;;;;5027721;28;20231;-63
2022/07/24 09:32:33;;;;;;;1.90;1.80;;;29.40;99.90;;;;;;5026917;28;20208;-62
2022/07/24 09:35:01;;;;;;;1.60;1.50;;;29.50;99.90;;;;;;5028267;28;20225;-64
2022/07/24 09:37:30;;;;;;;1.63;1.52;;;29.60;99.90;;;;;;5027074;28;20247;-63
2022/07/24 09:40:08;;;;;;;1.58;1.48;;;29.80;99.90;;;;;;5029516;28;20295;-63
2022/07/24 09:42:39;;;;;;;1.65;1.55;;;29.60;99.90;;;;;;5026142;28;20581;-64
2022/07/24 09:45:10;;;;;;;1.88;1.77;;;29.60;99.90;;;;;;5034231;28;20738;-64
2022/07/24 09:47:38;;;;;;;1.40;1.40;;;29.90;99.90;;;;;;5035525;28;20220;-63
2022/07/24 09:50:17;;;;;;;1.70;1.60;;;29.80;99.90;;;;;;5028704;28;20215;-67
2022/07/24 09:52:46;;;;;;;1.60;1.50;;;30.00;99.90;;;;;;5023997;28;20228;-62
2022/07/24 09:55:24;;;;;;;1.40;1.40;;;30.00;99.90;;;;;;5017744;28;20762;-63
2022/07/24 09:57:51;;;;;;;1.45;1.42;;;30.10;99.90;;;;;;5018347;28;20224;-64
2022/07/24 10:00:19;;;;;;;1.52;1.50;;;30.10;99.90;;;;;;5020772;28;20198;-63
2022/07/24 10:02:47;;;;;;;1.45;1.42;;;30.00;99.90;;;;;;5022488;28;20722;-64
2022/07/24 10:05:15;;;;;;;1.50;1.40;;;29.90;99.90;;;;;;5027061;28;20359;-63
2022/07/24 10:07:43;;;;;;;1.35;1.35;;;30.10;99.90;;;;;;5031371;28;20224;-64
2022/07/24 10:10:13;;;;;;;1.70;1.60;;;30.10;99.90;;;;;;5031698;28;20205;-64
2022/07/24 10:12:40;;;;;;;1.50;1.40;;;30.10;99.90;;;;;;5033063;28;20207;-62
2022/07/24 10:15:09;;;;;;;1.60;1.50;;;30.10;99.90;;;;;;5033778;28;20268;-62
2022/07/24 10:17:58;;;;;;;1.73;1.50;;;30.10;99.90;;;;;;5032922;28;20232;-64
2022/07/24 10:20:39;;;;;;;1.45;1.27;;;30.40;99.90;;;;;;5032958;28;20207;-64
2022/07/24 10:23:07;;;;;;;1.35;1.35;;;30.50;99.90;;;;;;5023874;28;20693;-64
2022/07/24 10:25:52;;;;;;;1.40;1.40;;;30.60;99.90;;;;;;5024888;28;20247;-64
2022/07/24 10:28:36;;;;;;;1.35;1.35;;;30.80;99.90;;;;;;5028010;28;20307;-64
2022/07/24 10:31:06;;;;;;;1.27;1.27;;;30.50;99.90;;;;;;5021626;28;20238;-63
2022/07/24 10:33:33;;;;;;;1.42;1.33;;;30.50;99.90;;;;;;5017257;28;20211;-63
2022/07/24 10:36:03;;;;;;;1.30;1.30;;;30.60;99.90;;;;;;5027982;28;20696;-64
2022/07/24 10:38:37;;;;;;;1.60;1.50;;;30.60;99.90;;;;;;5027450;28;20292;-64
2022/07/24 10:41:15;;;;;;;1.30;1.30;;;30.60;99.90;;;;;;5024139;28;20287;-64
2022/07/24 10:44:19;;;;;;;1.27;1.27;;;30.50;99.90;;;;;;5029318;28;20227;-63
2022/07/24 10:47:00;;;;;;;2.95;1.42;;;30.50;99.90;;;;;;5024574;28;20200;-64
2022/07/24 10:49:44;;;;;;;1.45;1.40;;;30.90;99.90;;;;;;5027531;28;20728;-65
2022/07/24 10:52:22;;;;;;;1.30;1.30;;;31.20;99.90;;;;;;5027380;28;20205;-64
2022/07/24 10:54:48;;;;;;;1.10;1.10;;;31.30;99.90;;;;;;5025991;28;20579;-64
2022/07/24 10:57:17;;;;;;;1.10;1.10;;;31.40;99.90;;;;;;5028545;28;20308;-64
2022/07/24 10:59:44;;;;;;;1.38;1.38;;;31.40;99.90;;;;;;5028156;28;20205;-64
2022/07/24 11:02:32;;;;;;;1.30;1.30;;;31.40;99.90;;;;;;5028337;28;20315;-62
2022/07/24 11:05:25;;;;;;;1.38;1.30;;;31.60;99.90;;;;;;5020980;28;20733;-63
2022/07/24 11:08:14;;;;;;;1.10;1.10;;;31.50;99.90;;;;;;5021454;28;20224;-63
2022/07/24 11:10:47;;;;;;;1.48;1.38;;;31.30;99.90;;;;;;5022650;28;20215;-62
2022/07/24 11:13:47;;;;;;;1.50;1.30;;;31.50;99.90;;;;;;5021088;28;20659;-63
2022/07/24 11:16:22;;;;;;;1.20;1.20;;;31.40;99.90;;;;;;5019883;28;20296;-63
2022/07/24 11:19:25;;;;;;;1.35;1.30;;;31.20;99.90;;;;;;5017368;28;20236;-62
2022/07/24 11:22:12;;;;;;;1.17;1.17;;;31.00;99.90;;;;;;5019705;28;20220;-65
2022/07/24 11:25:06;;;;;;;1.13;1.13;;;31.10;99.90;;;;;;5020590;28;20592;-63
2022/07/24 11:27:43;;;;;;;1.30;1.30;;;31.40;99.90;;;;;;5018937;28;20243;-63
2022/07/24 11:30:12;;;;;;;1.10;1.10;;;31.80;99.90;;;;;;5019250;28;20307;-63
2022/07/24 11:32:41;;;;;;;1.60;1.50;;;32.10;99.90;;;;;;5024036;28;20563;-62
2022/07/24 11:35:08;;;;;;;1.20;1.20;;;32.10;99.90;;;;;;5021783;28;20225;-64
2022/07/24 11:37:36;;;;;;;1.20;1.20;;;32.30;99.90;;;;;;5022145;28;20260;-64
2022/07/24 11:40:05;;;;;;;1.33;1.20;;;32.30;99.90;;;;;;5025381;28;20213;-63
2022/07/24 11:42:32;;;;;;;1.15;1.15;;;32.20;99.90;;;;;;5021084;28;20259;-62
2022/07/24 11:45:00;;;;;;;1.20;1.20;;;32.00;99.90;;;;;;5020025;28;20315;-64
2022/07/24 11:47:29;;;;;;;1.40;1.30;;;31.80;99.90;;;;;;5021864;28;20239;-64
2022/07/24 11:49:59;;;;;;;1.33;1.33;;;32.00;99.90;;;;;;5021546;28;20212;-64
2022/07/24 11:52:30;;;;;;;1.45;1.38;;;32.30;99.90;;;;;;5019650;28;20197;-63
2022/07/24 11:54:59;;;;;;;1.20;1.20;;;32.50;99.90;;;;;;5019967;28;20570;-64
2022/07/24 11:57:28;;;;;;;1.17;1.17;;;32.50;99.90;;;;;;5018432;28;20340;-63
2022/07/24 11:59:55;;;;;;;1.20;1.20;;;32.50;99.90;;;;;;5021485;28;20205;-63
2022/07/24 12:02:23;;;;;;;1.20;1.20;;;32.50;99.90;;;;;;5013537;28;20283;-63
2022/07/24 12:04:52;;;;;;;1.20;1.20;;;32.40;99.90;;;;;;5019459;28;20712;-64
2022/07/24 12:07:21;;;;;;;1.20;1.20;;;32.50;99.90;;;;;;5018111;28;20569;-64
2022/07/24 12:09:50;;;;;;;1.50;1.40;;;32.60;99.90;;;;;;5017578;28;20301;-64
2022/07/24 12:12:26;;;;;;;1.35;1.30;;;32.60;99.90;;;;;;5017734;28;20233;-66
2022/07/24 12:14:55;;;;;;;1.20;1.20;;;32.60;99.90;;;;;;5016842;28;20205;-64
2022/07/24 12:17:22;;;;;;;1.10;1.10;;;32.20;99.90;;;;;;5014667;28;20917;-65
2022/07/24 12:19:55;;;;;;;1.00;1.00;;;32.20;99.90;;;;;;5053188;22;20236;-67
2022/07/24 12:22:23;;;;;;;1.40;1.30;;;32.40;99.90;;;;;;5030969;28;20229;-68
2022/07/24 12:24:51;;;;;;;1.20;1.20;;;32.60;99.90;;;;;;5029109;28;20756;-67
2022/07/24 12:27:39;;;;;;;1.10;1.10;;;32.90;99.90;;;;;;5030351;28;20479;-67
2022/07/24 12:30:19;;;;;;;1.20;1.20;;;32.50;99.90;;;;;;5033320;28;20312;-68
2022/07/24 12:32:57;;;;;;;1.17;1.17;;;32.40;99.90;;;;;;5031420;28;20311;-66
2022/07/24 12:35:26;;;;;;;1.20;1.20;;;32.50;99.90;;;;;;5033101;28;20201;-65
2022/07/24 12:37:53;;;;;;;1.38;1.30;;;32.70;99.90;;;;;;5030855;28;20219;-66
2022/07/24 12:40:25;;;;;;;1.15;1.15;;;32.80;99.90;;;;;;5027824;28;20207;-65
2022/07/24 12:43:01;;;;;;;1.30;1.30;;;33.10;99.90;;;;;;5032601;28;20217;-68
2022/07/24 12:45:28;;;;;;;1.20;1.20;;;32.90;99.90;;;;;;5029415;28;20201;-67
2022/07/24 12:48:19;;;;;;;1.05;1.05;;;32.80;99.90;;;;;;5030956;28;20215;-66
2022/07/24 12:51:06;;;;;;;1.08;1.08;;;33.10;99.90;;;;;;5031008;28;20721;-66
2022/07/24 12:53:35;;;;;;;1.30;1.30;;;33.30;99.90;;;;;;5035798;28;20196;-67
2022/07/24 12:56:07;;;;;;;1.20;1.20;;;32.90;99.90;;;;;;5035560;28;20231;-66
2022/07/24 12:58:57;;;;;;;1.10;1.10;;;33.00;99.90;;;;;;5039246;28;20235;-67